createdAt,value
2023-01-30T00:01:27.320Z,101360.20
2023-01-30T00:04:04.708Z,101363.00
2023-01-30T00:06:42.718Z,101365.60
2023-01-30T00:09:20.876Z,101366.80
2023-01-30T00:11:58.267Z,101368.20
2023-01-30T00:14:34.813Z,101366.60
2023-01-30T00:17:11.593Z,101364.60
2023-01-30T00:19:48.442Z,101359.20
2023-01-30T00:22:25.073Z,101351.40
2023-01-30T00:25:02.099Z,101356.00
2023-01-30T00:27:39.700Z,101347.40
2023-01-30T00:30:21.163Z,101344.80
2023-01-30T00:33:01.952Z,101340.00
2023-01-30T00:35:37.669Z,101341.00
2023-01-30T00:38:14.391Z,101331.80
2023-01-30T00:40:51.686Z,101327.40
2023-01-30T00:43:45.555Z,101327.00
2023-01-30T00:47:05.762Z,101327.00
2023-01-30T00:49:42.389Z,101322.60
2023-01-30T00:52:18.986Z,101316.00
2023-01-30T00:54:55.405Z,101309.60
2023-01-30T00:57:32.164Z,101310.80
2023-01-30T01:00:11.103Z,101310.40
2023-01-30T01:02:50.101Z,101309.00
2023-01-30T01:05:26.607Z,101312.00
2023-01-30T01:08:03.543Z,101308.40
2023-01-30T01:10:40.152Z,101305.80
2023-01-30T01:13:17.093Z,101302.20
2023-01-30T01:15:54.463Z,101301.60
2023-01-30T01:18:31.431Z,101300.40
2023-01-30T01:21:08.482Z,101298.00
2023-01-30T01:23:44.620Z,101299.20
2023-01-30T01:26:21.703Z,101290.80
2023-01-30T01:29:01.983Z,101296.60
2023-01-30T01:31:39.885Z,101300.20
2023-01-30T01:34:16.547Z,101295.20
2023-01-30T01:36:56.420Z,101295.80
2023-01-30T01:39:46.498Z,101290.60
2023-01-30T01:42:23.104Z,101286.80
2023-01-30T01:45:20.667Z,101282.60
2023-01-30T01:48:12.433Z,101282.20
2023-01-30T01:50:56.314Z,101285.20
2023-01-30T01:53:41.402Z,101285.20
2023-01-30T01:56:22.066Z,101285.20
2023-01-30T01:59:05.148Z,101283.80
2023-01-30T02:01:41.593Z,101282.20
2023-01-30T02:04:39.057Z,101278.20
2023-01-30T02:07:17.579Z,101272.40
2023-01-30T02:09:55.763Z,101264.60
2023-01-30T02:12:33.663Z,101254.40
2023-01-30T02:15:15.916Z,101257.80
2023-01-30T02:17:52.628Z,101253.60
2023-01-30T02:20:47.860Z,101253.40
2023-01-30T02:24:09.412Z,101253.40
2023-01-30T02:27:21.819Z,101252.60
2023-01-30T02:30:27.894Z,101250.20
2023-01-30T02:33:19.953Z,101248.20
2023-01-30T02:36:12.940Z,101246.60
2023-01-30T02:39:03.217Z,101246.80
2023-01-30T02:41:51.065Z,101247.40
2023-01-30T02:44:40.830Z,101248.80
2023-01-30T02:47:24.684Z,101246.00
2023-01-30T02:50:10.411Z,101240.60
2023-01-30T02:52:48.392Z,101238.80
2023-01-30T02:55:30.770Z,101236.80
2023-01-30T02:58:09.112Z,101237.00
2023-01-30T03:01:19.680Z,101229.20
2023-01-30T03:04:27.715Z,101231.00
2023-01-30T03:07:25.875Z,101222.00
2023-01-30T03:10:12.294Z,101217.40
2023-01-30T03:13:05.303Z,101206.80
2023-01-30T03:15:48.985Z,101197.20
2023-01-30T03:18:25.814Z,101198.80
2023-01-30T03:21:09.705Z,101198.60
2023-01-30T03:23:47.130Z,101200.20
2023-01-30T03:26:27.757Z,101195.40
2023-01-30T03:29:05.055Z,101187.20
2023-01-30T03:31:42.267Z,101185.40
2023-01-30T03:34:19.615Z,101180.00
2023-01-30T03:36:57.304Z,101178.00
2023-01-30T03:39:33.602Z,101177.80
2023-01-30T03:42:11.731Z,101176.60
2023-01-30T03:44:48.566Z,101179.20
2023-01-30T03:47:25.524Z,101171.60
2023-01-30T03:50:02.274Z,101171.20
2023-01-30T03:52:42.743Z,101173.60
2023-01-30T03:55:21.864Z,101168.00
2023-01-30T03:58:02.510Z,101161.60
2023-01-30T04:00:41.807Z,101159.20
2023-01-30T04:03:18.499Z,101159.00
2023-01-30T04:05:56.036Z,101162.80
2023-01-30T04:08:32.611Z,101162.20
2023-01-30T04:11:09.618Z,101157.60
2023-01-30T04:13:46.126Z,101156.20
2023-01-30T04:16:29.864Z,101146.80
2023-01-30T04:19:36.121Z,101144.00
2023-01-30T04:22:12.515Z,101145.00
2023-01-30T04:24:49.711Z,101142.80
2023-01-30T04:27:25.985Z,101136.80
2023-01-30T04:30:22.352Z,101133.40
2023-01-30T04:33:02.165Z,101128.80
2023-01-30T04:35:38.458Z,101130.40
2023-01-30T04:38:15.689Z,101134.60
2023-01-30T04:40:56.639Z,101128.20
2023-01-30T04:43:35.581Z,101120.00
2023-01-30T04:46:15.102Z,101110.80
2023-01-30T04:48:52.069Z,101110.00
2023-01-30T04:51:28.840Z,101101.80
2023-01-30T04:54:09.000Z,101106.80
2023-01-30T04:56:45.373Z,101100.80
2023-01-30T04:59:21.369Z,101097.60
2023-01-30T05:01:57.753Z,101093.80
2023-01-30T05:04:34.642Z,101093.60
2023-01-30T05:07:12.019Z,101092.80
2023-01-30T05:09:48.160Z,101088.20
2023-01-30T05:12:25.530Z,101089.00
2023-01-30T05:15:03.361Z,101081.60
2023-01-30T05:17:42.008Z,101082.40
2023-01-30T05:20:24.157Z,101080.40
2023-01-30T05:23:00.856Z,101085.00
2023-01-30T05:25:37.594Z,101087.00
2023-01-30T05:28:14.973Z,101094.60
2023-01-30T05:30:51.354Z,101103.80
2023-01-30T05:33:29.044Z,101105.00
2023-01-30T05:36:06.694Z,101096.20
2023-01-30T05:38:45.464Z,101101.20
2023-01-30T05:41:23.847Z,101098.00
2023-01-30T05:44:00.476Z,101105.40
2023-01-30T05:46:36.663Z,101108.20
2023-01-30T05:49:14.104Z,101105.80
2023-01-30T05:51:51.658Z,101115.40
2023-01-30T05:54:29.576Z,101119.20
2023-01-30T05:57:06.131Z,101120.20
2023-01-30T05:59:43.104Z,101121.00
2023-01-30T06:02:20.315Z,101121.80
2023-01-30T06:04:56.979Z,101118.40
2023-01-30T06:07:32.830Z,101115.00
2023-01-30T06:10:12.895Z,101105.80
2023-01-30T06:12:49.915Z,101098.00
2023-01-30T06:15:27.286Z,101101.40
2023-01-30T06:18:04.283Z,101103.60
2023-01-30T06:20:41.497Z,101110.20
2023-01-30T06:23:18.561Z,101113.80
2023-01-30T06:25:56.995Z,101117.40
2023-01-30T06:28:34.024Z,101115.20
2023-01-30T06:31:13.137Z,101107.80
2023-01-30T06:33:51.285Z,101103.80
2023-01-30T06:36:28.721Z,101115.80
2023-01-30T06:39:05.359Z,101125.80
2023-01-30T06:41:42.515Z,101129.60
2023-01-30T06:44:19.906Z,101128.00
2023-01-30T06:46:57.695Z,101123.80
2023-01-30T06:49:34.474Z,101120.00
2023-01-30T06:52:12.644Z,101127.80
2023-01-30T06:54:49.045Z,101128.60
2023-01-30T06:57:26.247Z,101132.60
2023-01-30T07:00:03.405Z,101131.60
2023-01-30T07:02:40.661Z,101131.40
2023-01-30T07:05:18.536Z,101133.00
2023-01-30T07:07:55.229Z,101138.80
2023-01-30T07:10:32.749Z,101129.60
2023-01-30T07:13:10.058Z,101100.60
2023-01-30T07:15:47.181Z,101104.40
2023-01-30T07:18:24.670Z,101113.60
2023-01-30T07:21:02.229Z,101101.00
2023-01-30T07:23:39.423Z,101089.60
2023-01-30T07:26:16.678Z,101091.20
2023-01-30T07:28:53.899Z,101099.20
2023-01-30T07:31:30.347Z,101096.80
2023-01-30T07:34:07.501Z,101102.20
2023-01-30T07:36:44.495Z,101103.60
2023-01-30T07:39:21.620Z,101104.80
2023-01-30T07:41:58.690Z,101109.00
2023-01-30T07:44:36.037Z,101099.60
2023-01-30T07:47:13.189Z,101101.20
2023-01-30T07:49:50.118Z,101096.60
2023-01-30T07:52:27.014Z,101095.00
2023-01-30T07:55:04.511Z,101105.40
2023-01-30T07:57:42.980Z,101105.20
2023-01-30T08:00:28.024Z,101109.00
2023-01-30T08:03:04.777Z,101127.40
2023-01-30T08:05:40.904Z,101123.00
2023-01-30T08:08:17.517Z,101107.00
2023-01-30T08:10:56.879Z,101098.00
2023-01-30T08:13:33.388Z,101084.20
2023-01-30T08:16:12.531Z,101090.80
2023-01-30T08:18:49.340Z,101082.80
2023-01-30T08:21:25.621Z,101065.60
2023-01-30T08:24:01.604Z,101053.00
2023-01-30T08:26:38.551Z,101037.60
2023-01-30T08:29:15.733Z,101037.80
2023-01-30T08:31:52.705Z,101040.40
2023-01-30T08:34:28.718Z,101039.40
2023-01-30T08:37:05.417Z,101040.00
2023-01-30T08:39:42.449Z,101045.20
2023-01-30T08:42:19.652Z,101037.40
2023-01-30T08:44:56.485Z,101047.20
2023-01-30T08:47:33.243Z,101061.40
2023-01-30T08:50:12.878Z,101074.20
2023-01-30T08:52:50.403Z,101067.40
2023-01-30T08:55:26.572Z,101055.60
2023-01-30T08:58:03.853Z,101055.20
2023-01-30T09:00:44.658Z,101062.40
2023-01-30T09:03:22.733Z,101066.40
2023-01-30T09:06:03.509Z,101067.60
2023-01-30T09:08:40.324Z,101070.20
2023-01-30T09:11:18.036Z,101052.40
2023-01-30T09:13:54.875Z,101050.80
2023-01-30T09:16:32.521Z,101047.00
2023-01-30T09:19:09.223Z,101039.40
2023-01-30T09:21:45.281Z,101041.60
2023-01-30T09:24:21.408Z,101042.60
2023-01-30T09:26:59.193Z,101032.00
2023-01-30T09:29:35.411Z,101022.40
2023-01-30T09:32:12.327Z,101017.80
2023-01-30T09:34:49.390Z,101011.40
2023-01-30T09:37:25.704Z,101018.20
2023-01-30T09:40:02.984Z,101022.80
2023-01-30T09:43:13.638Z,101023.40
2023-01-30T09:46:15.423Z,101020.20
2023-01-30T09:49:06.057Z,101016.00
2023-01-30T09:52:00.791Z,101008.00
2023-01-30T09:54:43.111Z,101003.80
2023-01-30T09:57:26.723Z,100995.60
2023-01-30T10:00:14.594Z,100997.80
2023-01-30T10:03:02.136Z,100993.40
2023-01-30T10:05:47.090Z,101003.20
2023-01-30T10:08:52.908Z,100997.20
2023-01-30T10:11:55.467Z,100985.60
2023-01-30T10:14:47.940Z,100981.60
2023-01-30T10:17:48.510Z,100972.40
2023-01-30T10:20:49.042Z,100962.80
2023-01-30T10:23:59.360Z,100955.80
2023-01-30T10:26:36.507Z,100946.80
2023-01-30T10:29:22.052Z,100938.80
2023-01-30T10:32:12.915Z,100937.20
2023-01-30T10:34:56.147Z,100932.20
2023-01-30T10:37:43.021Z,100930.40
2023-01-30T10:40:29.502Z,100917.20
2023-01-30T10:43:16.814Z,100909.60
2023-01-30T10:46:04.675Z,100908.00
2023-01-30T10:49:02.121Z,100906.40
2023-01-30T10:51:57.865Z,100905.20
2023-01-30T10:54:40.589Z,100894.40
2023-01-30T10:57:32.433Z,100892.00
2023-01-30T11:00:18.278Z,100885.20
2023-01-30T11:03:30.315Z,100883.20
2023-01-30T11:06:13.414Z,100888.80
2023-01-30T11:08:50.008Z,100883.60
2023-01-30T11:11:37.601Z,100868.40
2023-01-30T11:14:15.826Z,100849.60
2023-01-30T11:16:56.721Z,100847.20
2023-01-30T11:19:40.912Z,100824.80
2023-01-30T11:22:21.688Z,100822.80
2023-01-30T11:25:14.053Z,100821.20
2023-01-30T11:28:02.804Z,100810.20
2023-01-30T11:30:42.311Z,100813.60
2023-01-30T11:33:23.255Z,100803.40
2023-01-30T11:36:05.894Z,100807.40
2023-01-30T11:38:57.728Z,100791.00
2023-01-30T11:41:36.225Z,100783.80
2023-01-30T11:44:14.614Z,100795.00
2023-01-30T11:46:52.154Z,100770.20
2023-01-30T11:49:45.993Z,100773.20
2023-01-30T11:52:38.491Z,100800.40
2023-01-30T11:55:23.378Z,100783.40
2023-01-30T11:58:04.577Z,100761.20
2023-01-30T12:00:49.730Z,100766.20
2023-01-30T12:03:29.619Z,100765.00
2023-01-30T12:06:09.164Z,100745.20
2023-01-30T12:08:48.065Z,100736.00
2023-01-30T12:11:45.384Z,100729.20
2023-01-30T12:14:44.400Z,100715.60
2023-01-30T12:17:30.304Z,100705.00
2023-01-30T12:20:20.792Z,100715.40
2023-01-30T12:23:11.843Z,100725.20
2023-01-30T12:26:01.838Z,100703.20
2023-01-30T12:28:49.537Z,100699.40
2023-01-30T12:31:32.143Z,100686.80
2023-01-30T12:34:11.132Z,100669.20
2023-01-30T12:37:04.774Z,100671.80
2023-01-30T12:39:58.641Z,100683.80
2023-01-30T12:43:04.749Z,100673.80
2023-01-30T12:45:48.840Z,100664.60
2023-01-30T12:49:11.733Z,100643.40
2023-01-30T12:52:16.023Z,100657.40
2023-01-30T12:55:05.185Z,100654.40
2023-01-30T12:57:53.226Z,100653.20
2023-01-30T13:01:12.030Z,100637.80
2023-01-30T13:03:57.801Z,100641.40
2023-01-30T13:07:00.899Z,100623.80
2023-01-30T13:10:01.103Z,100588.60
2023-01-30T13:12:51.660Z,100564.20
2023-01-30T13:15:40.869Z,100596.40
2023-01-30T13:18:25.078Z,100602.20
2023-01-30T13:21:14.655Z,100600.40
2023-01-30T13:24:09.799Z,100598.80
2023-01-30T13:26:48.650Z,100601.40
2023-01-30T13:29:36.052Z,100597.40
2023-01-30T13:32:21.660Z,100603.00
2023-01-30T13:35:02.285Z,100589.40
2023-01-30T13:37:40.631Z,100570.60
2023-01-30T13:40:27.912Z,100575.80
2023-01-30T13:43:15.070Z,100573.40
2023-01-30T13:45:55.650Z,100567.40
2023-01-30T13:48:49.755Z,100564.40
2023-01-30T13:51:51.170Z,100562.20
2023-01-30T13:54:50.127Z,100558.60
2023-01-30T13:57:46.182Z,100548.60
2023-01-30T14:00:35.222Z,100542.60
2023-01-30T14:03:44.301Z,100529.00
2023-01-30T14:06:41.711Z,100530.80
2023-01-30T14:09:35.771Z,100535.80
2023-01-30T14:12:22.792Z,100525.60
2023-01-30T14:15:24.507Z,100521.40
2023-01-30T14:18:19.920Z,100523.20
2023-01-30T14:21:15.162Z,100517.00
2023-01-30T14:24:03.232Z,100505.80
2023-01-30T14:27:24.704Z,100501.00
2023-01-30T14:30:02.873Z,100500.20
2023-01-30T14:32:59.423Z,100500.80
2023-01-30T14:35:36.600Z,100498.80
2023-01-30T14:38:21.591Z,100498.60
2023-01-30T14:41:31.162Z,100498.40
2023-01-30T14:44:10.422Z,100498.60
2023-01-30T14:46:59.853Z,100495.00
2023-01-30T14:49:45.941Z,100493.40
2023-01-30T14:52:42.021Z,100487.80
2023-01-30T14:55:30.003Z,100486.80
2023-01-30T14:58:17.903Z,100488.40
2023-01-30T15:01:02.419Z,100494.80
2023-01-30T15:03:41.692Z,100498.40
2023-01-30T15:06:20.039Z,100500.80
2023-01-30T15:08:57.569Z,100503.80
2023-01-30T15:11:39.776Z,100502.00
2023-01-30T15:14:25.574Z,100505.20
2023-01-30T15:17:28.297Z,100509.40
2023-01-30T15:20:44.597Z,100520.60
2023-01-30T15:26:53.604Z,100500.80
2023-01-30T15:30:05.871Z,100497.20
2023-01-30T15:32:43.620Z,100496.60
2023-01-30T15:35:30.321Z,100496.00
2023-01-30T15:38:06.243Z,100498.40
2023-01-30T15:40:46.568Z,100503.00
2023-01-30T15:43:53.153Z,100496.20
2023-01-30T15:46:44.292Z,100507.00
2023-01-30T15:49:52.001Z,100520.60
2023-01-30T15:52:33.726Z,100506.00
2023-01-30T15:55:18.147Z,100503.20
2023-01-30T15:57:59.343Z,100522.00
2023-01-30T16:00:43.102Z,100517.20
2023-01-30T16:03:27.663Z,100520.60
2023-01-30T16:06:05.059Z,100521.20
2023-01-30T16:08:42.939Z,100511.20
2023-01-30T16:11:34.478Z,100521.80
2023-01-30T16:14:14.744Z,100534.80
2023-01-30T16:16:55.991Z,100535.00
2023-01-30T16:19:37.829Z,100539.00
2023-01-30T16:22:25.272Z,100529.40
2023-01-30T16:25:03.150Z,100534.00
2023-01-30T16:27:41.981Z,100543.20
2023-01-30T16:30:27.507Z,100524.80
2023-01-30T16:33:13.422Z,100536.80
2023-01-30T16:35:52.588Z,100524.40
2023-01-30T16:38:46.508Z,100554.00
2023-01-30T16:41:37.628Z,100543.80
2023-01-30T16:44:25.462Z,100547.40
2023-01-30T16:47:07.780Z,100543.80
2023-01-30T16:50:00.058Z,100546.20
2023-01-30T16:52:47.232Z,100537.40
2023-01-30T16:55:30.002Z,100542.20
2023-01-30T16:58:09.860Z,100557.80
2023-01-30T17:00:53.668Z,100545.40
2023-01-30T17:03:37.824Z,100559.80
2023-01-30T17:06:28.224Z,100548.00
2023-01-30T17:09:05.842Z,100564.40
2023-01-30T17:11:44.507Z,100554.80
2023-01-30T17:14:30.708Z,100564.80
2023-01-30T17:17:11.089Z,100568.60
2023-01-30T17:19:48.563Z,100556.40
2023-01-30T17:22:26.555Z,100557.20
2023-01-30T17:25:09.795Z,100557.60
2023-01-30T17:27:46.538Z,100558.60
2023-01-30T17:30:28.027Z,100559.80
2023-01-30T17:33:05.431Z,100559.00
2023-01-30T17:35:43.134Z,100566.20
2023-01-30T17:38:21.629Z,100559.40
2023-01-30T17:40:58.348Z,100564.80
2023-01-30T17:43:35.015Z,100569.20
2023-01-30T17:46:14.013Z,100574.00
2023-01-30T17:48:51.958Z,100574.80
2023-01-30T17:51:28.848Z,100578.60
2023-01-30T17:54:06.379Z,100582.40
2023-01-30T17:56:46.254Z,100590.40
2023-01-30T17:59:24.099Z,100583.80
2023-01-30T18:02:01.818Z,100585.80
2023-01-30T18:04:40.224Z,100583.20
2023-01-30T18:07:20.835Z,100589.20
2023-01-30T18:09:57.683Z,100583.40
2023-01-30T18:12:35.289Z,100597.80
2023-01-30T18:15:16.835Z,100577.80
2023-01-30T18:17:56.599Z,100580.80
2023-01-30T18:20:33.544Z,100579.60
2023-01-30T18:23:11.099Z,100589.00
2023-01-30T18:25:47.359Z,100569.40
2023-01-30T18:28:24.941Z,100575.40
2023-01-30T18:31:02.099Z,100581.40
2023-01-30T18:33:39.450Z,100589.00
2023-01-30T18:36:18.716Z,100579.80
2023-01-30T18:38:56.044Z,100598.20
2023-01-30T18:41:33.090Z,100598.20
2023-01-30T18:44:13.151Z,100591.80
2023-01-30T18:46:51.401Z,100595.40
2023-01-30T18:49:28.365Z,100590.20
2023-01-30T18:52:04.392Z,100604.20
2023-01-30T18:54:41.220Z,100594.40
2023-01-30T18:57:18.469Z,100592.60
2023-01-30T18:59:55.367Z,100590.00
2023-01-30T19:02:32.957Z,100590.20
2023-01-30T19:05:11.472Z,100583.20
2023-01-30T19:07:47.721Z,100585.80
2023-01-30T19:10:25.333Z,100586.80
2023-01-30T19:13:17.799Z,100591.20
2023-01-30T19:16:00.075Z,100598.20
2023-01-30T19:18:38.034Z,100600.40
2023-01-30T19:21:15.536Z,100594.80
2023-01-30T19:23:52.361Z,100606.20
2023-01-30T19:26:30.202Z,100607.40
2023-01-30T19:29:06.280Z,100623.60
2023-01-30T19:31:42.031Z,100635.00
2023-01-30T19:34:19.962Z,100640.20
2023-01-30T19:36:56.338Z,100645.80
2023-01-30T19:39:33.423Z,100642.40
2023-01-30T19:42:10.693Z,100644.20
2023-01-30T19:44:47.763Z,100645.80
2023-01-30T19:47:25.212Z,100645.20
2023-01-30T19:50:02.655Z,100651.00
2023-01-30T19:52:39.708Z,100653.00
2023-01-30T19:55:18.988Z,100656.60
2023-01-30T19:57:54.888Z,100657.60
2023-01-30T20:00:32.679Z,100654.00
2023-01-30T20:03:09.186Z,100655.80
2023-01-30T20:05:46.542Z,100653.80
2023-01-30T20:08:32.179Z,100670.80
2023-01-30T20:11:15.570Z,100674.80
2023-01-30T20:13:53.642Z,100679.40
2023-01-30T20:16:32.299Z,100677.60
2023-01-30T20:19:11.936Z,100682.80
2023-01-30T20:21:48.965Z,100680.40
2023-01-30T20:24:25.136Z,100684.20
2023-01-30T20:27:02.454Z,100701.80
2023-01-30T20:29:39.814Z,100697.60
2023-01-30T20:32:16.492Z,100702.20
2023-01-30T20:34:53.720Z,100712.00
2023-01-30T20:37:31.391Z,100721.00
2023-01-30T20:40:09.726Z,100726.60
2023-01-30T20:42:47.287Z,100725.40
2023-01-30T20:45:24.565Z,100733.00
2023-01-30T20:48:01.481Z,100747.20
2023-01-30T20:50:38.563Z,100734.60
2023-01-30T20:53:15.661Z,100745.80
2023-01-30T20:55:53.026Z,100762.40
2023-01-30T20:58:29.354Z,100754.60
2023-01-30T21:01:17.673Z,100762.20
2023-01-30T21:03:56.845Z,100756.40
2023-01-30T21:06:42.921Z,100756.60
2023-01-30T21:09:24.578Z,100773.60
2023-01-30T21:12:01.033Z,100776.60
2023-01-30T21:14:38.208Z,100782.00
2023-01-30T21:17:14.711Z,100780.80
2023-01-30T21:19:51.240Z,100788.80
2023-01-30T21:22:28.264Z,100787.60
2023-01-30T21:25:05.340Z,100790.20
2023-01-30T21:27:41.438Z,100792.20
2023-01-30T21:30:22.479Z,100789.60
2023-01-30T21:33:00.036Z,100803.00
2023-01-30T21:35:38.002Z,100822.80
2023-01-30T21:38:33.190Z,100822.00
2023-01-30T21:41:27.331Z,100821.00
2023-01-30T21:44:04.542Z,100824.60
2023-01-30T21:46:45.655Z,100831.80
2023-01-30T21:49:23.672Z,100827.40
2023-01-30T21:51:59.630Z,100844.20
2023-01-30T21:54:37.811Z,100831.00
2023-01-30T21:57:14.788Z,100842.80
2023-01-30T21:59:51.926Z,100860.00
2023-01-30T22:02:28.910Z,100854.40
2023-01-30T22:05:04.417Z,100862.20
2023-01-30T22:07:41.766Z,100859.60
2023-01-30T22:10:21.892Z,100865.80
2023-01-30T22:12:58.575Z,100867.20
2023-01-30T22:15:35.575Z,100878.40
2023-01-30T22:18:13.311Z,100884.80
2023-01-30T22:20:50.264Z,100878.00
2023-01-30T22:23:27.280Z,100892.20
2023-01-30T22:26:04.042Z,100906.60
2023-01-30T22:28:40.529Z,100902.80
2023-01-30T22:31:19.700Z,100897.20
2023-01-30T22:33:59.086Z,100901.40
2023-01-30T22:36:38.745Z,100902.40
2023-01-30T22:39:15.724Z,100909.80
2023-01-30T22:41:52.341Z,100921.60
2023-01-30T22:44:30.393Z,100922.40
2023-01-30T22:47:06.783Z,100926.60
2023-01-30T22:49:43.580Z,100937.40
2023-01-30T22:52:20.061Z,100944.80
2023-01-30T22:54:56.711Z,100935.00
2023-01-30T22:57:33.069Z,100939.20
2023-01-30T23:00:16.319Z,100955.00
2023-01-30T23:02:53.773Z,100960.40
2023-01-30T23:05:31.507Z,100952.40
2023-01-30T23:08:09.201Z,100945.80
2023-01-30T23:10:48.153Z,100955.40
2023-01-30T23:13:25.431Z,100964.40
2023-01-30T23:16:04.176Z,100963.40
2023-01-30T23:19:02.737Z,100971.60
2023-01-30T23:21:41.905Z,100968.80
2023-01-30T23:24:21.790Z,100976.80
2023-01-30T23:26:58.704Z,100987.60
2023-01-30T23:29:38.017Z,100986.60
2023-01-30T23:32:15.629Z,100975.20
2023-01-30T23:34:51.938Z,100979.40
2023-01-30T23:37:42.202Z,100987.20
2023-01-30T23:40:22.903Z,100992.40
2023-01-30T23:42:59.455Z,100988.20
2023-01-30T23:45:38.888Z,100988.60
2023-01-30T23:48:16.614Z,100997.00
2023-01-30T23:50:54.226Z,101001.20
2023-01-30T23:53:31.026Z,101004.00
2023-01-30T23:56:08.697Z,101007.00
2023-01-30T23:58:44.774Z,101010.60
